sensor_id;sensor_type;location;lat;lon;timestamp;P1;durP1;ratioP1;P2;durP2;ratioP2
36787;SDS011;22738;45.560;9.434;2023-05-07T00:01:23;27.38;;;18.25;;
36787;SDS011;22738;45.560;9.434;2023-05-07T00:08:04;29.77;;;18.08;;
36787;SDS011;22738;45.560;9.434;2023-05-07T00:14:45;25.45;;;17.48;;
36787;SDS011;22738;45.560;9.434;2023-05-07T00:21:26;35.50;;;22.83;;
36787;SDS011;22738;45.560;9.434;2023-05-07T00:28:07;27.75;;;17.95;;
36787;SDS011;22738;45.560;9.434;2023-05-07T00:34:48;21.65;;;13.60;;
36787;SDS011;22738;45.560;9.434;2023-05-07T00:41:29;13.50;;;9.23;;
36787;SDS011;22738;45.560;9.434;2023-05-07T00:54:54;5.65;;;4.13;;
36787;SDS011;22738;45.560;9.434;2023-05-07T01:01:35;5.80;;;3.88;;
36787;SDS011;22738;45.560;9.434;2023-05-07T01:08:17;5.95;;;3.88;;
36787;SDS011;22738;45.560;9.434;2023-05-07T01:14:59;7.18;;;4.28;;
36787;SDS011;22738;45.560;9.434;2023-05-07T01:21:40;3.22;;;2.90;;
36787;SDS011;22738;45.560;9.434;2023-05-07T01:28:27;4.00;;;3.05;;
36787;SDS011;22738;45.560;9.434;2023-05-07T01:35:12;3.95;;;2.85;;
36787;SDS011;22738;45.560;9.434;2023-05-07T01:41:57;3.65;;;2.22;;
36787;SDS011;22738;45.560;9.434;2023-05-07T01:48:40;4.60;;;2.42;;
36787;SDS011;22738;45.560;9.434;2023-05-07T01:55:22;5.93;;;2.90;;
36787;SDS011;22738;45.560;9.434;2023-05-07T02:02:05;3.40;;;2.25;;
36787;SDS011;22738;45.560;9.434;2023-05-07T02:08:48;2.88;;;1.83;;
36787;SDS011;22738;45.560;9.434;2023-05-07T02:15:30;2.67;;;1.60;;
36787;SDS011;22738;45.560;9.434;2023-05-07T02:28:54;7.10;;;3.42;;
36787;SDS011;22738;45.560;9.434;2023-05-07T02:35:37;3.13;;;2.42;;
36787;SDS011;22738;45.560;9.434;2023-05-07T02:42:18;5.93;;;2.10;;
36787;SDS011;22738;45.560;9.434;2023-05-07T02:49:00;4.55;;;2.13;;
36787;SDS011;22738;45.560;9.434;2023-05-07T02:55:41;6.28;;;2.03;;
36787;SDS011;22738;45.560;9.434;2023-05-07T03:02:22;4.97;;;1.77;;
36787;SDS011;22738;45.560;9.434;2023-05-07T03:09:04;3.40;;;1.92;;
36787;SDS011;22738;45.560;9.434;2023-05-07T03:15:47;5.40;;;2.28;;
36787;SDS011;22738;45.560;9.434;2023-05-07T03:22:28;5.72;;;2.63;;
36787;SDS011;22738;45.560;9.434;2023-05-07T03:29:10;6.88;;;2.25;;
36787;SDS011;22738;45.560;9.434;2023-05-07T03:35:51;4.50;;;2.50;;
36787;SDS011;22738;45.560;9.434;2023-05-07T03:42:36;6.80;;;2.20;;
36787;SDS011;22738;45.560;9.434;2023-05-07T03:49:18;4.30;;;2.20;;
36787;SDS011;22738;45.560;9.434;2023-05-07T03:55:59;3.22;;;1.85;;
36787;SDS011;22738;45.560;9.434;2023-05-07T04:02:43;4.53;;;1.80;;
36787;SDS011;22738;45.560;9.434;2023-05-07T04:09:24;3.60;;;1.80;;
36787;SDS011;22738;45.560;9.434;2023-05-07T04:16:06;2.33;;;1.73;;
36787;SDS011;22738;45.560;9.434;2023-05-07T04:22:50;1.98;;;1.80;;
36787;SDS011;22738;45.560;9.434;2023-05-07T04:29:31;2.65;;;1.73;;
36787;SDS011;22738;45.560;9.434;2023-05-07T04:36:13;2.92;;;1.90;;
36787;SDS011;22738;45.560;9.434;2023-05-07T04:43:04;4.22;;;1.80;;
36787;SDS011;22738;45.560;9.434;2023-05-07T04:49:49;3.50;;;1.42;;
36787;SDS011;22738;45.560;9.434;2023-05-07T04:56:30;2.85;;;1.20;;
36787;SDS011;22738;45.560;9.434;2023-05-07T05:03:12;4.60;;;1.35;;
36787;SDS011;22738;45.560;9.434;2023-05-07T05:09:54;3.15;;;1.33;;
36787;SDS011;22738;45.560;9.434;2023-05-07T05:16:37;2.43;;;1.40;;
36787;SDS011;22738;45.560;9.434;2023-05-07T05:23:19;4.68;;;1.50;;
36787;SDS011;22738;45.560;9.434;2023-05-07T05:30:01;2.00;;;1.60;;
36787;SDS011;22738;45.560;9.434;2023-05-07T05:36:44;2.53;;;1.73;;
36787;SDS011;22738;45.560;9.434;2023-05-07T05:43:29;2.08;;;1.23;;
36787;SDS011;22738;45.560;9.434;2023-05-07T05:50:10;2.92;;;1.30;;
36787;SDS011;22738;45.560;9.434;2023-05-07T05:56:52;1.75;;;1.52;;
36787;SDS011;22738;45.560;9.434;2023-05-07T06:03:33;1.63;;;1.00;;
36787;SDS011;22738;45.560;9.434;2023-05-07T06:10:19;3.38;;;1.50;;
36787;SDS011;22738;45.560;9.434;2023-05-07T06:17:00;2.08;;;1.10;;
36787;SDS011;22738;45.560;9.434;2023-05-07T06:23:43;1.58;;;1.10;;
36787;SDS011;22738;45.560;9.434;2023-05-07T06:30:25;2.10;;;1.02;;
36787;SDS011;22738;45.560;9.434;2023-05-07T06:37:08;4.77;;;1.10;;
36787;SDS011;22738;45.560;9.434;2023-05-07T06:44:05;4.10;;;1.42;;
36787;SDS011;22738;45.560;9.434;2023-05-07T06:50:53;4.97;;;1.27;;
36787;SDS011;22738;45.560;9.434;2023-05-07T07:04:18;3.25;;;1.23;;
36787;SDS011;22738;45.560;9.434;2023-05-07T07:11:07;2.78;;;1.98;;
36787;SDS011;22738;45.560;9.434;2023-05-07T07:17:49;2.65;;;1.63;;
36787;SDS011;22738;45.560;9.434;2023-05-07T07:24:30;2.65;;;1.60;;
36787;SDS011;22738;45.560;9.434;2023-05-07T07:31:15;2.25;;;1.70;;
36787;SDS011;22738;45.560;9.434;2023-05-07T07:37:56;2.10;;;1.58;;
36787;SDS011;22738;45.560;9.434;2023-05-07T07:44:38;3.53;;;1.30;;
36787;SDS011;22738;45.560;9.434;2023-05-07T07:51:26;4.15;;;1.63;;
36787;SDS011;22738;45.560;9.434;2023-05-07T07:58:07;3.83;;;1.50;;
36787;SDS011;22738;45.560;9.434;2023-05-07T08:04:49;8.73;;;2.13;;
36787;SDS011;22738;45.560;9.434;2023-05-07T08:11:30;5.05;;;2.30;;
36787;SDS011;22738;45.560;9.434;2023-05-07T08:18:11;5.45;;;2.15;;
36787;SDS011;22738;45.560;9.434;2023-05-07T08:24:53;4.15;;;2.10;;
36787;SDS011;22738;45.560;9.434;2023-05-07T08:31:35;4.68;;;1.90;;
36787;SDS011;22738;45.560;9.434;2023-05-07T08:38:16;3.80;;;2.17;;
36787;SDS011;22738;45.560;9.434;2023-05-07T08:44:57;2.80;;;1.83;;
36787;SDS011;22738;45.560;9.434;2023-05-07T08:51:42;2.90;;;1.95;;
36787;SDS011;22738;45.560;9.434;2023-05-07T08:58:23;3.40;;;2.05;;
36787;SDS011;22738;45.560;9.434;2023-05-07T09:05:05;2.25;;;1.52;;
36787;SDS011;22738;45.560;9.434;2023-05-07T09:11:46;2.53;;;1.63;;
36787;SDS011;22738;45.560;9.434;2023-05-07T09:18:30;3.83;;;1.73;;
36787;SDS011;22738;45.560;9.434;2023-05-07T09:25:11;2.38;;;1.20;;
36787;SDS011;22738;45.560;9.434;2023-05-07T09:31:54;2.33;;;1.70;;
36787;SDS011;22738;45.560;9.434;2023-05-07T09:38:36;1.85;;;1.13;;
36787;SDS011;22738;45.560;9.434;2023-05-07T09:45:26;1.80;;;0.70;;
36787;SDS011;22738;45.560;9.434;2023-05-07T09:52:08;1.30;;;1.00;;
36787;SDS011;22738;45.560;9.434;2023-05-07T09:59:01;1.70;;;0.70;;
36787;SDS011;22738;45.560;9.434;2023-05-07T10:05:46;2.58;;;1.00;;
36787;SDS011;22738;45.560;9.434;2023-05-07T10:19:10;6.32;;;2.20;;
36787;SDS011;22738;45.560;9.434;2023-05-07T10:25:54;4.82;;;1.75;;
36787;SDS011;22738;45.560;9.434;2023-05-07T10:32:47;1.92;;;1.25;;
36787;SDS011;22738;45.560;9.434;2023-05-07T10:39:43;1.38;;;1.10;;
36787;SDS011;22738;45.560;9.434;2023-05-07T10:46:25;2.20;;;1.00;;
36787;SDS011;22738;45.560;9.434;2023-05-07T11:00:40;1.70;;;0.98;;
36787;SDS011;22738;45.560;9.434;2023-05-07T11:07:28;2.83;;;1.20;;
36787;SDS011;22738;45.560;9.434;2023-05-07T11:21:41;2.88;;;1.30;;
36787;SDS011;22738;45.560;9.434;2023-05-07T11:28:54;3.13;;;2.28;;
36787;SDS011;22738;45.560;9.434;2023-05-07T11:35:39;3.63;;;2.58;;
36787;SDS011;22738;45.560;9.434;2023-05-07T11:42:28;4.20;;;2.65;;
36787;SDS011;22738;45.560;9.434;2023-05-07T11:49:10;4.15;;;2.28;;
36787;SDS011;22738;45.560;9.434;2023-05-07T11:55:56;7.00;;;2.53;;
36787;SDS011;22738;45.560;9.434;2023-05-07T12:02:37;3.25;;;2.10;;
36787;SDS011;22738;45.560;9.434;2023-05-07T12:09:19;4.82;;;3.38;;
36787;SDS011;22738;45.560;9.434;2023-05-07T12:16:00;4.40;;;2.15;;
36787;SDS011;22738;45.560;9.434;2023-05-07T12:22:45;3.97;;;2.50;;
36787;SDS011;22738;45.560;9.434;2023-05-07T12:29:28;4.30;;;2.15;;
36787;SDS011;22738;45.560;9.434;2023-05-07T12:36:11;4.05;;;2.20;;
36787;SDS011;22738;45.560;9.434;2023-05-07T12:42:53;4.97;;;2.88;;
36787;SDS011;22738;45.560;9.434;2023-05-07T12:49:37;4.38;;;2.63;;
36787;SDS011;22738;45.560;9.434;2023-05-07T12:56:19;7.75;;;2.83;;
36787;SDS011;22738;45.560;9.434;2023-05-07T13:03:00;5.63;;;2.58;;
36787;SDS011;22738;45.560;9.434;2023-05-07T13:09:42;3.15;;;2.53;;
36787;SDS011;22738;45.560;9.434;2023-05-07T13:16:22;3.35;;;2.00;;
36787;SDS011;22738;45.560;9.434;2023-05-07T13:23:03;4.20;;;2.05;;
36787;SDS011;22738;45.560;9.434;2023-05-07T13:29:45;3.08;;;1.83;;
36787;SDS011;22738;45.560;9.434;2023-05-07T13:36:27;2.90;;;1.98;;
36787;SDS011;22738;45.560;9.434;2023-05-07T13:43:10;1.60;;;1.45;;
36787;SDS011;22738;45.560;9.434;2023-05-07T13:49:51;4.25;;;2.40;;
36787;SDS011;22738;45.560;9.434;2023-05-07T13:56:32;2.67;;;1.80;;
36787;SDS011;22738;45.560;9.434;2023-05-07T14:03:13;5.05;;;2.42;;
36787;SDS011;22738;45.560;9.434;2023-05-07T14:09:54;2.55;;;2.05;;
36787;SDS011;22738;45.560;9.434;2023-05-07T14:16:36;22.75;;;6.90;;
36787;SDS011;22738;45.560;9.434;2023-05-07T14:23:17;3.03;;;1.88;;
36787;SDS011;22738;45.560;9.434;2023-05-07T14:30:00;4.27;;;1.40;;
36787;SDS011;22738;45.560;9.434;2023-05-07T14:36:41;2.47;;;1.90;;
36787;SDS011;22738;45.560;9.434;2023-05-07T14:43:22;2.30;;;1.83;;
36787;SDS011;22738;45.560;9.434;2023-05-07T14:50:04;2.92;;;1.70;;
36787;SDS011;22738;45.560;9.434;2023-05-07T14:56:45;3.45;;;1.40;;
36787;SDS011;22738;45.560;9.434;2023-05-07T15:03:27;2.25;;;1.50;;
36787;SDS011;22738;45.560;9.434;2023-05-07T15:10:08;3.92;;;1.80;;
36787;SDS011;22738;45.560;9.434;2023-05-07T15:16:50;3.92;;;1.80;;
36787;SDS011;22738;45.560;9.434;2023-05-07T15:23:31;2.33;;;1.67;;
36787;SDS011;22738;45.560;9.434;2023-05-07T15:30:13;2.63;;;2.00;;
36787;SDS011;22738;45.560;9.434;2023-05-07T15:36:54;2.83;;;1.73;;
36787;SDS011;22738;45.560;9.434;2023-05-07T15:43:47;1.93;;;1.60;;
36787;SDS011;22738;45.560;9.434;2023-05-07T15:50:29;4.30;;;1.90;;
36787;SDS011;22738;45.560;9.434;2023-05-07T15:57:11;2.15;;;1.45;;
36787;SDS011;22738;45.560;9.434;2023-05-07T16:03:52;2.08;;;1.70;;
36787;SDS011;22738;45.560;9.434;2023-05-07T16:10:33;2.22;;;1.67;;
36787;SDS011;22738;45.560;9.434;2023-05-07T16:17:14;2.72;;;2.03;;
36787;SDS011;22738;45.560;9.434;2023-05-07T16:23:55;3.47;;;1.98;;
36787;SDS011;22738;45.560;9.434;2023-05-07T16:30:36;2.22;;;1.75;;
36787;SDS011;22738;45.560;9.434;2023-05-07T16:37:17;3.88;;;2.38;;
36787;SDS011;22738;45.560;9.434;2023-05-07T16:43:58;2.55;;;1.75;;
36787;SDS011;22738;45.560;9.434;2023-05-07T16:50:39;2.13;;;1.77;;
36787;SDS011;22738;45.560;9.434;2023-05-07T16:57:21;4.72;;;2.17;;
36787;SDS011;22738;45.560;9.434;2023-05-07T17:04:02;3.95;;;1.70;;
36787;SDS011;22738;45.560;9.434;2023-05-07T17:10:43;2.40;;;1.80;;
36787;SDS011;22738;45.560;9.434;2023-05-07T17:17:26;3.17;;;1.55;;
36787;SDS011;22738;45.560;9.434;2023-05-07T17:24:07;2.53;;;1.65;;
36787;SDS011;22738;45.560;9.434;2023-05-07T17:30:49;5.82;;;1.60;;
36787;SDS011;22738;45.560;9.434;2023-05-07T17:37:31;3.28;;;1.90;;
36787;SDS011;22738;45.560;9.434;2023-05-07T17:44:12;2.13;;;1.45;;
36787;SDS011;22738;45.560;9.434;2023-05-07T17:50:59;3.08;;;2.00;;
36787;SDS011;22738;45.560;9.434;2023-05-07T17:57:40;3.22;;;1.98;;
36787;SDS011;22738;45.560;9.434;2023-05-07T18:04:21;2.70;;;1.80;;
36787;SDS011;22738;45.560;9.434;2023-05-07T18:11:04;2.47;;;1.92;;
36787;SDS011;22738;45.560;9.434;2023-05-07T18:17:45;1.60;;;1.50;;
36787;SDS011;22738;45.560;9.434;2023-05-07T18:24:26;2.83;;;1.60;;
36787;SDS011;22738;45.560;9.434;2023-05-07T18:31:07;3.83;;;2.00;;
36787;SDS011;22738;45.560;9.434;2023-05-07T18:37:48;3.33;;;2.25;;
36787;SDS011;22738;45.560;9.434;2023-05-07T18:44:30;6.43;;;3.00;;
36787;SDS011;22738;45.560;9.434;2023-05-07T18:51:11;13.73;;;3.97;;
36787;SDS011;22738;45.560;9.434;2023-05-07T18:57:52;5.38;;;3.53;;
36787;SDS011;22738;45.560;9.434;2023-05-07T19:04:33;4.80;;;3.15;;
36787;SDS011;22738;45.560;9.434;2023-05-07T19:11:15;4.20;;;2.40;;
36787;SDS011;22738;45.560;9.434;2023-05-07T19:17:56;3.97;;;2.38;;
36787;SDS011;22738;45.560;9.434;2023-05-07T19:24:37;4.45;;;2.35;;
36787;SDS011;22738;45.560;9.434;2023-05-07T19:31:23;3.60;;;2.20;;
36787;SDS011;22738;45.560;9.434;2023-05-07T19:38:07;4.22;;;2.58;;
36787;SDS011;22738;45.560;9.434;2023-05-07T19:44:48;5.40;;;1.85;;
36787;SDS011;22738;45.560;9.434;2023-05-07T19:51:30;5.55;;;2.05;;
36787;SDS011;22738;45.560;9.434;2023-05-07T19:58:12;7.97;;;2.70;;
36787;SDS011;22738;45.560;9.434;2023-05-07T20:04:56;3.55;;;2.53;;
36787;SDS011;22738;45.560;9.434;2023-05-07T20:11:38;3.42;;;2.13;;
36787;SDS011;22738;45.560;9.434;2023-05-07T20:18:19;7.72;;;2.67;;
36787;SDS011;22738;45.560;9.434;2023-05-07T20:25:02;7.03;;;2.80;;
36787;SDS011;22738;45.560;9.434;2023-05-07T20:31:45;6.30;;;3.60;;
36787;SDS011;22738;45.560;9.434;2023-05-07T20:38:26;5.93;;;3.65;;
36787;SDS011;22738;45.560;9.434;2023-05-07T20:45:08;6.95;;;3.78;;
36787;SDS011;22738;45.560;9.434;2023-05-07T20:51:50;5.60;;;4.07;;
36787;SDS011;22738;45.560;9.434;2023-05-07T20:58:31;7.57;;;4.10;;
36787;SDS011;22738;45.560;9.434;2023-05-07T21:05:12;7.18;;;4.68;;
36787;SDS011;22738;45.560;9.434;2023-05-07T21:11:53;4.85;;;3.28;;
36787;SDS011;22738;45.560;9.434;2023-05-07T21:18:35;5.15;;;2.92;;
36787;SDS011;22738;45.560;9.434;2023-05-07T21:25:16;5.45;;;3.30;;
36787;SDS011;22738;45.560;9.434;2023-05-07T21:31:57;7.35;;;3.25;;
36787;SDS011;22738;45.560;9.434;2023-05-07T21:38:39;6.68;;;3.63;;
36787;SDS011;22738;45.560;9.434;2023-05-07T21:45:20;3.72;;;2.97;;
36787;SDS011;22738;45.560;9.434;2023-05-07T21:52:02;6.30;;;2.55;;
36787;SDS011;22738;45.560;9.434;2023-05-07T21:58:44;5.05;;;3.20;;
36787;SDS011;22738;45.560;9.434;2023-05-07T22:05:25;3.45;;;2.22;;
36787;SDS011;22738;45.560;9.434;2023-05-07T22:12:06;8.18;;;3.33;;
36787;SDS011;22738;45.560;9.434;2023-05-07T22:18:47;7.75;;;4.70;;
36787;SDS011;22738;45.560;9.434;2023-05-07T22:25:30;6.97;;;4.35;;
36787;SDS011;22738;45.560;9.434;2023-05-07T22:32:15;3.60;;;3.03;;
36787;SDS011;22738;45.560;9.434;2023-05-07T22:38:56;4.75;;;2.90;;
36787;SDS011;22738;45.560;9.434;2023-05-07T22:45:37;3.72;;;2.83;;
36787;SDS011;22738;45.560;9.434;2023-05-07T22:52:18;4.53;;;2.90;;
36787;SDS011;22738;45.560;9.434;2023-05-07T22:58:59;4.80;;;2.40;;
36787;SDS011;22738;45.560;9.434;2023-05-07T23:05:41;4.82;;;3.10;;
36787;SDS011;22738;45.560;9.434;2023-05-07T23:12:22;5.55;;;3.22;;
36787;SDS011;22738;45.560;9.434;2023-05-07T23:19:03;6.05;;;3.60;;
36787;SDS011;22738;45.560;9.434;2023-05-07T23:25:44;6.70;;;4.63;;
36787;SDS011;22738;45.560;9.434;2023-05-07T23:32:26;9.63;;;5.57;;
36787;SDS011;22738;45.560;9.434;2023-05-07T23:39:07;9.57;;;6.15;;
36787;SDS011;22738;45.560;9.434;2023-05-07T23:45:48;9.60;;;7.03;;
36787;SDS011;22738;45.560;9.434;2023-05-07T23:52:29;14.52;;;8.48;;
36787;SDS011;22738;45.560;9.434;2023-05-07T23:59:10;12.65;;;8.90;;
